Main page
METAR-TAF:

METAR-TAF

Airports :

Cornwall Airport Newquay

Newquay Cornwall, England

latitude: 50-26N, longitude: 005-00W, elevation: 119 m

Current weather observation

The report was made 30 minutes ago, at 21:50 UTC
Wind 9 kt from the Northwest
Temperature 6°C
Humidity 61%
Pressure 1028 hPa
Visibility 10 km or more

METAR: EGHQ 112150Z AUTO 32009KT 9999 FEW034/// 06/M01 Q1028

Time: 23:20 (22:20 UTC)

Forecast

The report was made 2 hours and 26 minutes ago, at 19:54 UTC
Forecast valid from 11 at 21 UTC to 12 at 06 UTC
Wind 9 kt from the Northwest
Visibility 10 km or more
Few clouds at a height of 3500 ft
Probability 30% :
Temporary
from 12 at 03 UTC to 12 at 06 UTC
Visibility: 7000 m
Broken clouds at a height of 1400 ft
rain showers

TAF: EGHQ 111954Z 1121/1206 31009KT 9999 FEW035 PROB30 TEMPO 1203/1206 7000 SHRA BKN014

Weather observations and forecasts of more than 4000 airports (METAR and TAF reports).

The available stations are represented by yellow and red dots on the map.

Hover mouse over dot to see the name of the station.

Then click to see weather observations and forecasts.

To change the map : click on the green buttons with a black cross to zoom in, on the green button with a dash to zoom out, or on the green arrows for adjacent maps.


METAR-TAF: